sensor_id;sensor_type;location;lat;lon;timestamp;temperature;humidity
19248;DHT22;9758;48.640;8.148;2023-06-26T00:00:45;25.40;30.70
19248;DHT22;9758;48.640;8.148;2023-06-26T00:03:13;25.30;30.60
19248;DHT22;9758;48.640;8.148;2023-06-26T00:05:40;25.30;30.60
19248;DHT22;9758;48.640;8.148;2023-06-26T00:08:08;25.30;30.70
19248;DHT22;9758;48.640;8.148;2023-06-26T00:10:35;25.30;30.70
19248;DHT22;9758;48.640;8.148;2023-06-26T00:13:01;25.30;30.70
19248;DHT22;9758;48.640;8.148;2023-06-26T00:15:30;25.30;30.70
19248;DHT22;9758;48.640;8.148;2023-06-26T00:17:57;25.30;30.80
19248;DHT22;9758;48.640;8.148;2023-06-26T00:20:24;25.30;30.90
19248;DHT22;9758;48.640;8.148;2023-06-26T00:22:51;25.30;30.80
19248;DHT22;9758;48.640;8.148;2023-06-26T00:25:19;25.20;30.80
19248;DHT22;9758;48.640;8.148;2023-06-26T00:27:46;25.20;30.90
19248;DHT22;9758;48.640;8.148;2023-06-26T00:30:16;25.20;30.90
19248;DHT22;9758;48.640;8.148;2023-06-26T00:32:44;25.10;30.90
19248;DHT22;9758;48.640;8.148;2023-06-26T00:35:10;25.10;30.80
19248;DHT22;9758;48.640;8.148;2023-06-26T00:37:37;25.10;30.90
19248;DHT22;9758;48.640;8.148;2023-06-26T00:40:05;25.10;30.90
19248;DHT22;9758;48.640;8.148;2023-06-26T00:42:32;25.10;31.00
19248;DHT22;9758;48.640;8.148;2023-06-26T00:44:58;25.00;30.90
19248;DHT22;9758;48.640;8.148;2023-06-26T00:47:25;25.00;31.00
19248;DHT22;9758;48.640;8.148;2023-06-26T00:49:54;25.00;31.10
19248;DHT22;9758;48.640;8.148;2023-06-26T00:52:22;24.90;31.00
19248;DHT22;9758;48.640;8.148;2023-06-26T00:54:50;25.00;31.10
19248;DHT22;9758;48.640;8.148;2023-06-26T00:57:17;24.90;31.10
19248;DHT22;9758;48.640;8.148;2023-06-26T00:59:44;24.90;31.00
19248;DHT22;9758;48.640;8.148;2023-06-26T01:02:11;24.90;31.10
19248;DHT22;9758;48.640;8.148;2023-06-26T01:04:37;24.80;31.10
19248;DHT22;9758;48.640;8.148;2023-06-26T01:07:13;24.80;31.10
19248;DHT22;9758;48.640;8.148;2023-06-26T01:09:42;24.80;31.20
19248;DHT22;9758;48.640;8.148;2023-06-26T01:12:09;24.70;31.20
19248;DHT22;9758;48.640;8.148;2023-06-26T01:14:36;24.70;31.20
19248;DHT22;9758;48.640;8.148;2023-06-26T01:17:03;24.80;31.30
19248;DHT22;9758;48.640;8.148;2023-06-26T01:19:31;24.70;31.90
19248;DHT22;9758;48.640;8.148;2023-06-26T01:22:11;24.70;31.30
19248;DHT22;9758;48.640;8.148;2023-06-26T01:24:47;24.70;31.30
19248;DHT22;9758;48.640;8.148;2023-06-26T01:27:19;24.70;31.40
19248;DHT22;9758;48.640;8.148;2023-06-26T01:30:16;24.60;31.30
19248;DHT22;9758;48.640;8.148;2023-06-26T01:32:43;24.60;31.30
19248;DHT22;9758;48.640;8.148;2023-06-26T01:35:11;24.60;31.40
19248;DHT22;9758;48.640;8.148;2023-06-26T01:37:38;24.60;31.40
19248;DHT22;9758;48.640;8.148;2023-06-26T01:40:05;24.60;31.50
19248;DHT22;9758;48.640;8.148;2023-06-26T01:42:34;24.50;31.40
19248;DHT22;9758;48.640;8.148;2023-06-26T01:45:05;24.50;31.50
19248;DHT22;9758;48.640;8.148;2023-06-26T01:47:36;24.50;31.60
19248;DHT22;9758;48.640;8.148;2023-06-26T01:50:07;24.40;31.60
19248;DHT22;9758;48.640;8.148;2023-06-26T01:52:40;24.40;31.60
19248;DHT22;9758;48.640;8.148;2023-06-26T01:55:12;24.40;31.60
19248;DHT22;9758;48.640;8.148;2023-06-26T01:57:45;24.40;31.70
19248;DHT22;9758;48.640;8.148;2023-06-26T02:00:14;24.30;31.60
19248;DHT22;9758;48.640;8.148;2023-06-26T02:02:42;24.30;31.70
19248;DHT22;9758;48.640;8.148;2023-06-26T02:05:09;24.30;31.80
19248;DHT22;9758;48.640;8.148;2023-06-26T02:07:36;24.30;31.80
19248;DHT22;9758;48.640;8.148;2023-06-26T02:10:03;24.30;31.80
19248;DHT22;9758;48.640;8.148;2023-06-26T02:12:29;24.20;31.80
19248;DHT22;9758;48.640;8.148;2023-06-26T02:14:57;24.20;31.80
19248;DHT22;9758;48.640;8.148;2023-06-26T02:17:24;24.20;31.90
19248;DHT22;9758;48.640;8.148;2023-06-26T02:19:51;24.20;31.90
19248;DHT22;9758;48.640;8.148;2023-06-26T02:22:17;24.20;31.90
19248;DHT22;9758;48.640;8.148;2023-06-26T02:24:44;24.20;31.90
19248;DHT22;9758;48.640;8.148;2023-06-26T02:27:11;24.20;32.00
19248;DHT22;9758;48.640;8.148;2023-06-26T02:29:39;24.20;32.00
19248;DHT22;9758;48.640;8.148;2023-06-26T02:32:08;24.20;31.90
19248;DHT22;9758;48.640;8.148;2023-06-26T02:34:35;24.20;32.00
19248;DHT22;9758;48.640;8.148;2023-06-26T02:37:02;24.20;32.00
19248;DHT22;9758;48.640;8.148;2023-06-26T02:39:29;24.20;32.00
19248;DHT22;9758;48.640;8.148;2023-06-26T02:41:55;24.20;32.10
19248;DHT22;9758;48.640;8.148;2023-06-26T02:44:22;24.20;32.10
19248;DHT22;9758;48.640;8.148;2023-06-26T02:46:49;24.20;32.10
19248;DHT22;9758;48.640;8.148;2023-06-26T02:49:17;24.20;32.20
19248;DHT22;9758;48.640;8.148;2023-06-26T02:51:43;24.20;32.10
19248;DHT22;9758;48.640;8.148;2023-06-26T02:54:10;24.20;32.20
19248;DHT22;9758;48.640;8.148;2023-06-26T02:56:37;24.20;32.20
19248;DHT22;9758;48.640;8.148;2023-06-26T02:59:03;24.20;32.30
19248;DHT22;9758;48.640;8.148;2023-06-26T03:01:30;24.20;32.20
19248;DHT22;9758;48.640;8.148;2023-06-26T03:03:57;24.10;32.20
19248;DHT22;9758;48.640;8.148;2023-06-26T03:06:27;24.20;32.30
19248;DHT22;9758;48.640;8.148;2023-06-26T03:08:54;24.20;32.30
19248;DHT22;9758;48.640;8.148;2023-06-26T03:11:20;24.10;32.40
19248;DHT22;9758;48.640;8.148;2023-06-26T03:13:47;24.10;32.50
19248;DHT22;9758;48.640;8.148;2023-06-26T03:16:14;24.10;32.60
19248;DHT22;9758;48.640;8.148;2023-06-26T03:18:40;24.10;32.60
19248;DHT22;9758;48.640;8.148;2023-06-26T03:21:08;24.10;32.70
19248;DHT22;9758;48.640;8.148;2023-06-26T03:23:36;24.10;32.70
19248;DHT22;9758;48.640;8.148;2023-06-26T03:26:03;24.20;32.80
19248;DHT22;9758;48.640;8.148;2023-06-26T03:28:30;24.20;32.60
19248;DHT22;9758;48.640;8.148;2023-06-26T03:30:57;24.20;32.90
19248;DHT22;9758;48.640;8.148;2023-06-26T03:33:24;24.20;32.80
19248;DHT22;9758;48.640;8.148;2023-06-26T03:35:51;24.20;32.90
19248;DHT22;9758;48.640;8.148;2023-06-26T03:38:18;24.20;33.00
19248;DHT22;9758;48.640;8.148;2023-06-26T03:40:46;24.20;33.00
19248;DHT22;9758;48.640;8.148;2023-06-26T03:43:16;24.20;33.40
19248;DHT22;9758;48.640;8.148;2023-06-26T03:45:43;24.30;32.80
19248;DHT22;9758;48.640;8.148;2023-06-26T03:48:10;24.30;32.90
19248;DHT22;9758;48.640;8.148;2023-06-26T03:50:36;24.30;32.80
19248;DHT22;9758;48.640;8.148;2023-06-26T03:53:03;24.30;32.80
19248;DHT22;9758;48.640;8.148;2023-06-26T03:55:30;24.40;32.80
19248;DHT22;9758;48.640;8.148;2023-06-26T03:57:58;24.40;32.80
19248;DHT22;9758;48.640;8.148;2023-06-26T04:00:25;24.40;32.80
19248;DHT22;9758;48.640;8.148;2023-06-26T04:02:51;24.40;32.80
19248;DHT22;9758;48.640;8.148;2023-06-26T04:05:18;24.40;32.80
19248;DHT22;9758;48.640;8.148;2023-06-26T04:07:45;24.40;32.80
19248;DHT22;9758;48.640;8.148;2023-06-26T04:10:12;24.50;32.80
19248;DHT22;9758;48.640;8.148;2023-06-26T04:12:38;24.50;32.80
19248;DHT22;9758;48.640;8.148;2023-06-26T04:15:08;24.50;33.00
19248;DHT22;9758;48.640;8.148;2023-06-26T04:17:34;24.50;32.90
19248;DHT22;9758;48.640;8.148;2023-06-26T04:20:01;24.50;32.90
19248;DHT22;9758;48.640;8.148;2023-06-26T04:22:31;24.50;32.90
19248;DHT22;9758;48.640;8.148;2023-06-26T04:25:00;24.50;32.90
19248;DHT22;9758;48.640;8.148;2023-06-26T04:27:27;24.50;32.90
19248;DHT22;9758;48.640;8.148;2023-06-26T04:29:53;24.50;33.00
19248;DHT22;9758;48.640;8.148;2023-06-26T04:32:21;24.60;33.00
19248;DHT22;9758;48.640;8.148;2023-06-26T04:34:49;24.60;33.00
19248;DHT22;9758;48.640;8.148;2023-06-26T04:37:15;24.60;33.00
19248;DHT22;9758;48.640;8.148;2023-06-26T04:39:42;24.60;33.10
19248;DHT22;9758;48.640;8.148;2023-06-26T04:42:09;24.60;33.00
19248;DHT22;9758;48.640;8.148;2023-06-26T04:44:37;24.60;33.00
19248;DHT22;9758;48.640;8.148;2023-06-26T04:47:06;24.60;33.10
19248;DHT22;9758;48.640;8.148;2023-06-26T04:49:34;24.60;33.10
19248;DHT22;9758;48.640;8.148;2023-06-26T04:52:00;24.60;33.20
19248;DHT22;9758;48.640;8.148;2023-06-26T04:54:28;24.60;33.30
19248;DHT22;9758;48.640;8.148;2023-06-26T04:56:56;24.60;33.30
19248;DHT22;9758;48.640;8.148;2023-06-26T04:59:23;24.60;33.20
19248;DHT22;9758;48.640;8.148;2023-06-26T05:01:49;24.60;33.30
19248;DHT22;9758;48.640;8.148;2023-06-26T05:04:16;24.60;33.30
19248;DHT22;9758;48.640;8.148;2023-06-26T05:06:44;24.60;33.30
19248;DHT22;9758;48.640;8.148;2023-06-26T05:09:11;24.60;33.30
19248;DHT22;9758;48.640;8.148;2023-06-26T05:11:38;24.70;33.30
19248;DHT22;9758;48.640;8.148;2023-06-26T05:14:04;24.70;33.40
19248;DHT22;9758;48.640;8.148;2023-06-26T05:16:33;24.70;33.30
19248;DHT22;9758;48.640;8.148;2023-06-26T05:19:00;24.80;33.40
19248;DHT22;9758;48.640;8.148;2023-06-26T05:21:27;24.80;33.50
19248;DHT22;9758;48.640;8.148;2023-06-26T05:23:57;24.80;33.40
19248;DHT22;9758;48.640;8.148;2023-06-26T05:26:25;24.90;33.50
19248;DHT22;9758;48.640;8.148;2023-06-26T05:28:52;25.00;33.50
19248;DHT22;9758;48.640;8.148;2023-06-26T05:31:19;25.00;33.40
19248;DHT22;9758;48.640;8.148;2023-06-26T05:33:46;25.00;33.40
19248;DHT22;9758;48.640;8.148;2023-06-26T05:36:16;25.10;33.50
19248;DHT22;9758;48.640;8.148;2023-06-26T05:38:43;25.20;33.70
19248;DHT22;9758;48.640;8.148;2023-06-26T05:41:12;25.20;34.00
19248;DHT22;9758;48.640;8.148;2023-06-26T05:43:39;25.30;33.50
19248;DHT22;9758;48.640;8.148;2023-06-26T05:46:05;25.40;33.50
19248;DHT22;9758;48.640;8.148;2023-06-26T05:48:32;25.50;33.60
19248;DHT22;9758;48.640;8.148;2023-06-26T05:50:59;25.60;33.60
19248;DHT22;9758;48.640;8.148;2023-06-26T05:53:27;25.70;33.50
19248;DHT22;9758;48.640;8.148;2023-06-26T05:55:56;25.80;33.60
19248;DHT22;9758;48.640;8.148;2023-06-26T05:58:26;25.90;33.60
19248;DHT22;9758;48.640;8.148;2023-06-26T06:00:53;26.00;33.60
19248;DHT22;9758;48.640;8.148;2023-06-26T06:03:20;26.00;33.50
19248;DHT22;9758;48.640;8.148;2023-06-26T06:05:46;26.10;33.50
19248;DHT22;9758;48.640;8.148;2023-06-26T06:08:13;26.20;33.70
19248;DHT22;9758;48.640;8.148;2023-06-26T06:10:40;26.30;33.60
19248;DHT22;9758;48.640;8.148;2023-06-26T06:13:07;26.40;33.60
19248;DHT22;9758;48.640;8.148;2023-06-26T06:15:35;26.40;33.60
19248;DHT22;9758;48.640;8.148;2023-06-26T06:18:02;26.50;33.80
19248;DHT22;9758;48.640;8.148;2023-06-26T06:20:28;26.60;33.60
19248;DHT22;9758;48.640;8.148;2023-06-26T06:22:55;26.70;33.60
19248;DHT22;9758;48.640;8.148;2023-06-26T06:25:22;26.70;33.60
19248;DHT22;9758;48.640;8.148;2023-06-26T06:27:48;26.80;33.80
19248;DHT22;9758;48.640;8.148;2023-06-26T06:30:15;26.90;33.70
19248;DHT22;9758;48.640;8.148;2023-06-26T06:32:43;27.00;33.70
19248;DHT22;9758;48.640;8.148;2023-06-26T06:35:10;27.10;33.60
19248;DHT22;9758;48.640;8.148;2023-06-26T06:37:38;27.30;33.80
19248;DHT22;9758;48.640;8.148;2023-06-26T06:40:05;27.30;33.60
19248;DHT22;9758;48.640;8.148;2023-06-26T06:42:32;27.40;33.70
19248;DHT22;9758;48.640;8.148;2023-06-26T06:44:59;27.50;33.50
19248;DHT22;9758;48.640;8.148;2023-06-26T06:47:26;27.60;33.60
19248;DHT22;9758;48.640;8.148;2023-06-26T06:49:54;27.70;33.50
19248;DHT22;9758;48.640;8.148;2023-06-26T06:52:21;27.80;33.40
19248;DHT22;9758;48.640;8.148;2023-06-26T06:54:52;27.90;33.40
19248;DHT22;9758;48.640;8.148;2023-06-26T06:57:19;28.00;33.60
19248;DHT22;9758;48.640;8.148;2023-06-26T06:59:46;28.00;34.00
19248;DHT22;9758;48.640;8.148;2023-06-26T07:02:14;28.00;34.00
19248;DHT22;9758;48.640;8.148;2023-06-26T07:04:40;28.00;33.90
19248;DHT22;9758;48.640;8.148;2023-06-26T07:07:08;28.00;34.10
19248;DHT22;9758;48.640;8.148;2023-06-26T07:09:35;27.90;34.50
19248;DHT22;9758;48.640;8.148;2023-06-26T07:12:02;27.90;34.30
19248;DHT22;9758;48.640;8.148;2023-06-26T07:14:30;27.90;34.50
19248;DHT22;9758;48.640;8.148;2023-06-26T07:16:57;27.80;34.30
19248;DHT22;9758;48.640;8.148;2023-06-26T07:19:24;27.80;34.40
19248;DHT22;9758;48.640;8.148;2023-06-26T07:21:50;27.80;34.60
19248;DHT22;9758;48.640;8.148;2023-06-26T07:24:18;27.90;34.40
19248;DHT22;9758;48.640;8.148;2023-06-26T07:26:45;27.90;34.40
19248;DHT22;9758;48.640;8.148;2023-06-26T07:29:12;28.00;34.40
19248;DHT22;9758;48.640;8.148;2023-06-26T07:31:38;28.10;34.50
19248;DHT22;9758;48.640;8.148;2023-06-26T07:34:15;28.20;34.40
19248;DHT22;9758;48.640;8.148;2023-06-26T07:36:42;28.20;34.50
19248;DHT22;9758;48.640;8.148;2023-06-26T07:39:08;28.30;34.30
19248;DHT22;9758;48.640;8.148;2023-06-26T07:41:36;28.30;34.30
19248;DHT22;9758;48.640;8.148;2023-06-26T07:44:03;28.50;34.30
19248;DHT22;9758;48.640;8.148;2023-06-26T07:46:30;28.50;34.20
19248;DHT22;9758;48.640;8.148;2023-06-26T07:48:57;28.60;34.10
19248;DHT22;9758;48.640;8.148;2023-06-26T07:51:23;28.70;34.10
19248;DHT22;9758;48.640;8.148;2023-06-26T07:53:50;28.70;34.00
19248;DHT22;9758;48.640;8.148;2023-06-26T07:56:17;28.70;34.10
19248;DHT22;9758;48.640;8.148;2023-06-26T07:58:45;28.70;34.10
19248;DHT22;9758;48.640;8.148;2023-06-26T08:01:12;28.60;34.10
19248;DHT22;9758;48.640;8.148;2023-06-26T08:03:39;28.60;34.10
19248;DHT22;9758;48.640;8.148;2023-06-26T08:06:06;28.70;34.20
19248;DHT22;9758;48.640;8.148;2023-06-26T08:08:33;28.70;34.10
19248;DHT22;9758;48.640;8.148;2023-06-26T08:10:59;28.80;34.30
19248;DHT22;9758;48.640;8.148;2023-06-26T08:13:26;28.80;34.20
19248;DHT22;9758;48.640;8.148;2023-06-26T08:15:54;28.80;34.20
19248;DHT22;9758;48.640;8.148;2023-06-26T08:18:21;28.80;34.40
19248;DHT22;9758;48.640;8.148;2023-06-26T08:20:48;28.70;34.30
19248;DHT22;9758;48.640;8.148;2023-06-26T08:23:14;28.70;34.40
19248;DHT22;9758;48.640;8.148;2023-06-26T08:25:41;28.70;34.30
19248;DHT22;9758;48.640;8.148;2023-06-26T08:28:08;28.80;34.60
19248;DHT22;9758;48.640;8.148;2023-06-26T08:30:35;28.80;34.50
19248;DHT22;9758;48.640;8.148;2023-06-26T08:33:03;28.90;34.50
19248;DHT22;9758;48.640;8.148;2023-06-26T08:35:30;29.00;34.40
19248;DHT22;9758;48.640;8.148;2023-06-26T08:37:56;29.10;34.40
19248;DHT22;9758;48.640;8.148;2023-06-26T08:40:23;29.10;34.70
19248;DHT22;9758;48.640;8.148;2023-06-26T08:42:50;29.10;34.60
19248;DHT22;9758;48.640;8.148;2023-06-26T08:45:19;29.00;34.50
19248;DHT22;9758;48.640;8.148;2023-06-26T08:47:48;29.00;34.50
19248;DHT22;9758;48.640;8.148;2023-06-26T08:50:20;29.00;34.50
19248;DHT22;9758;48.640;8.148;2023-06-26T08:52:54;29.20;34.50
19248;DHT22;9758;48.640;8.148;2023-06-26T08:55:23;29.30;34.50
19248;DHT22;9758;48.640;8.148;2023-06-26T08:57:53;29.40;34.60
19248;DHT22;9758;48.640;8.148;2023-06-26T09:00:20;29.40;34.40
19248;DHT22;9758;48.640;8.148;2023-06-26T09:02:47;29.40;34.50
19248;DHT22;9758;48.640;8.148;2023-06-26T09:05:14;29.50;34.40
19248;DHT22;9758;48.640;8.148;2023-06-26T09:07:42;29.60;34.30
19248;DHT22;9758;48.640;8.148;2023-06-26T09:10:09;29.60;34.30
19248;DHT22;9758;48.640;8.148;2023-06-26T09:12:37;29.80;34.50
19248;DHT22;9758;48.640;8.148;2023-06-26T09:15:05;29.90;34.20
19248;DHT22;9758;48.640;8.148;2023-06-26T09:17:38;30.00;34.10
19248;DHT22;9758;48.640;8.148;2023-06-26T09:20:05;30.10;34.20
19248;DHT22;9758;48.640;8.148;2023-06-26T09:22:34;30.00;34.30
19248;DHT22;9758;48.640;8.148;2023-06-26T09:25:05;29.90;34.30
19248;DHT22;9758;48.640;8.148;2023-06-26T09:27:32;29.80;34.50
19248;DHT22;9758;48.640;8.148;2023-06-26T09:29:59;29.70;34.40
19248;DHT22;9758;48.640;8.148;2023-06-26T09:32:26;29.80;34.60
19248;DHT22;9758;48.640;8.148;2023-06-26T09:34:53;29.80;34.50
19248;DHT22;9758;48.640;8.148;2023-06-26T09:37:21;29.90;34.50
19248;DHT22;9758;48.640;8.148;2023-06-26T09:39:51;30.00;34.50
19248;DHT22;9758;48.640;8.148;2023-06-26T09:42:19;30.10;34.40
19248;DHT22;9758;48.640;8.148;2023-06-26T09:44:46;30.10;34.30
19248;DHT22;9758;48.640;8.148;2023-06-26T09:47:16;30.20;34.30
19248;DHT22;9758;48.640;8.148;2023-06-26T09:49:43;30.30;34.20
19248;DHT22;9758;48.640;8.148;2023-06-26T09:52:09;30.30;34.10
19248;DHT22;9758;48.640;8.148;2023-06-26T09:54:36;30.30;34.10
19248;DHT22;9758;48.640;8.148;2023-06-26T09:57:09;30.30;34.10
19248;DHT22;9758;48.640;8.148;2023-06-26T09:59:38;30.30;34.30
19248;DHT22;9758;48.640;8.148;2023-06-26T10:02:05;30.30;34.30
19248;DHT22;9758;48.640;8.148;2023-06-26T10:04:32;30.40;34.30
19248;DHT22;9758;48.640;8.148;2023-06-26T10:07:02;30.40;34.30
19248;DHT22;9758;48.640;8.148;2023-06-26T10:09:31;30.50;34.20
19248;DHT22;9758;48.640;8.148;2023-06-26T10:12:02;30.40;34.20
19248;DHT22;9758;48.640;8.148;2023-06-26T10:14:33;30.20;34.10
19248;DHT22;9758;48.640;8.148;2023-06-26T10:17:04;30.10;34.20
19248;DHT22;9758;48.640;8.148;2023-06-26T10:19:33;30.00;34.40
19248;DHT22;9758;48.640;8.148;2023-06-26T10:22:01;29.90;34.40
19248;DHT22;9758;48.640;8.148;2023-06-26T10:24:33;29.90;34.50
19248;DHT22;9758;48.640;8.148;2023-06-26T10:27:03;29.90;34.50
19248;DHT22;9758;48.640;8.148;2023-06-26T10:29:32;30.00;34.50
19248;DHT22;9758;48.640;8.148;2023-06-26T10:32:00;30.00;34.60
19248;DHT22;9758;48.640;8.148;2023-06-26T10:34:30;30.00;34.70
19248;DHT22;9758;48.640;8.148;2023-06-26T12:12:46;30.00;33.90
19248;DHT22;9758;48.640;8.148;2023-06-26T12:15:15;30.00;33.90
19248;DHT22;9758;48.640;8.148;2023-06-26T12:17:42;30.00;33.70
19248;DHT22;9758;48.640;8.148;2023-06-26T12:20:17;30.10;33.80
19248;DHT22;9758;48.640;8.148;2023-06-26T12:22:45;30.10;33.90
19248;DHT22;9758;48.640;8.148;2023-06-26T12:25:12;30.10;34.50
19248;DHT22;9758;48.640;8.148;2023-06-26T12:27:39;30.20;33.70
19248;DHT22;9758;48.640;8.148;2023-06-26T12:30:08;30.20;33.70
19248;DHT22;9758;48.640;8.148;2023-06-26T12:32:35;30.30;33.70
19248;DHT22;9758;48.640;8.148;2023-06-26T12:35:02;30.40;33.60
19248;DHT22;9758;48.640;8.148;2023-06-26T12:37:29;30.30;33.40
19248;DHT22;9758;48.640;8.148;2023-06-26T12:39:58;30.30;33.60
19248;DHT22;9758;48.640;8.148;2023-06-26T12:42:26;30.30;33.60
19248;DHT22;9758;48.640;8.148;2023-06-26T12:44:53;30.30;33.60
19248;DHT22;9758;48.640;8.148;2023-06-26T12:47:25;30.40;33.70
19248;DHT22;9758;48.640;8.148;2023-06-26T12:49:53;30.50;33.70
19248;DHT22;9758;48.640;8.148;2023-06-26T12:52:20;30.60;33.60
19248;DHT22;9758;48.640;8.148;2023-06-26T12:54:52;30.80;33.50
19248;DHT22;9758;48.640;8.148;2023-06-26T12:57:18;30.80;33.10
19248;DHT22;9758;48.640;8.148;2023-06-26T12:59:45;30.80;33.40
19248;DHT22;9758;48.640;8.148;2023-06-26T13:02:12;30.80;33.40
19248;DHT22;9758;48.640;8.148;2023-06-26T13:04:40;30.80;33.40
19248;DHT22;9758;48.640;8.148;2023-06-26T13:07:07;30.90;33.30
19248;DHT22;9758;48.640;8.148;2023-06-26T13:09:34;30.80;33.10
19248;DHT22;9758;48.640;8.148;2023-06-26T13:12:03;30.70;33.20
19248;DHT22;9758;48.640;8.148;2023-06-26T13:14:30;30.70;33.30
19248;DHT22;9758;48.640;8.148;2023-06-26T13:16:56;30.60;33.30
19248;DHT22;9758;48.640;8.148;2023-06-26T13:19:23;30.60;33.30
19248;DHT22;9758;48.640;8.148;2023-06-26T13:21:51;30.60;33.30
19248;DHT22;9758;48.640;8.148;2023-06-26T13:24:18;30.70;33.40
19248;DHT22;9758;48.640;8.148;2023-06-26T13:26:44;30.80;33.30
19248;DHT22;9758;48.640;8.148;2023-06-26T13:29:11;30.70;33.20
19248;DHT22;9758;48.640;8.148;2023-06-26T13:31:38;30.60;33.20
19248;DHT22;9758;48.640;8.148;2023-06-26T13:34:04;30.60;33.30
19248;DHT22;9758;48.640;8.148;2023-06-26T13:36:31;30.60;33.30
19248;DHT22;9758;48.640;8.148;2023-06-26T13:39:01;30.70;33.30
19248;DHT22;9758;48.640;8.148;2023-06-26T13:41:28;30.60;33.20
19248;DHT22;9758;48.640;8.148;2023-06-26T13:43:55;30.60;33.30
19248;DHT22;9758;48.640;8.148;2023-06-26T13:46:22;30.70;33.40
19248;DHT22;9758;48.640;8.148;2023-06-26T13:48:48;30.80;33.40
19248;DHT22;9758;48.640;8.148;2023-06-26T13:51:15;31.00;33.30
19248;DHT22;9758;48.640;8.148;2023-06-26T13:53:42;31.10;33.10
19248;DHT22;9758;48.640;8.148;2023-06-26T13:56:10;31.20;33.10
19248;DHT22;9758;48.640;8.148;2023-06-26T13:58:36;31.20;32.90
19248;DHT22;9758;48.640;8.148;2023-06-26T14:01:05;31.20;32.90
19248;DHT22;9758;48.640;8.148;2023-06-26T14:03:31;31.20;32.90
19248;DHT22;9758;48.640;8.148;2023-06-26T14:05:58;31.20;32.80
19248;DHT22;9758;48.640;8.148;2023-06-26T14:08:25;31.20;32.90
19248;DHT22;9758;48.640;8.148;2023-06-26T14:10:51;31.10;32.90
19248;DHT22;9758;48.640;8.148;2023-06-26T14:13:19;31.10;32.90
19248;DHT22;9758;48.640;8.148;2023-06-26T14:15:46;31.00;32.80
19248;DHT22;9758;48.640;8.148;2023-06-26T14:18:13;31.00;33.10
19248;DHT22;9758;48.640;8.148;2023-06-26T14:20:40;31.00;33.00
19248;DHT22;9758;48.640;8.148;2023-06-26T14:23:07;31.00;32.90
19248;DHT22;9758;48.640;8.148;2023-06-26T14:25:33;31.00;32.80
19248;DHT22;9758;48.640;8.148;2023-06-26T14:28:01;30.90;32.90
19248;DHT22;9758;48.640;8.148;2023-06-26T14:30:29;30.80;32.80
19248;DHT22;9758;48.640;8.148;2023-06-26T14:32:55;30.90;33.00
19248;DHT22;9758;48.640;8.148;2023-06-26T14:35:22;30.90;33.50
19248;DHT22;9758;48.640;8.148;2023-06-26T14:37:49;31.00;32.90
19248;DHT22;9758;48.640;8.148;2023-06-26T14:40:15;31.00;32.80
19248;DHT22;9758;48.640;8.148;2023-06-26T14:42:42;30.90;32.70
19248;DHT22;9758;48.640;8.148;2023-06-26T14:45:10;31.00;32.80
19248;DHT22;9758;48.640;8.148;2023-06-26T14:47:39;30.90;32.70
19248;DHT22;9758;48.640;8.148;2023-06-26T14:50:07;31.00;32.80
19248;DHT22;9758;48.640;8.148;2023-06-26T14:52:34;31.00;32.80
19248;DHT22;9758;48.640;8.148;2023-06-26T14:55:01;31.10;32.80
19248;DHT22;9758;48.640;8.148;2023-06-26T14:57:27;31.20;32.80
19248;DHT22;9758;48.640;8.148;2023-06-26T14:59:54;31.20;32.50
19248;DHT22;9758;48.640;8.148;2023-06-26T15:02:21;31.20;32.30
19248;DHT22;9758;48.640;8.148;2023-06-26T15:04:49;31.10;32.50
19248;DHT22;9758;48.640;8.148;2023-06-26T15:07:16;31.00;32.50
19248;DHT22;9758;48.640;8.148;2023-06-26T15:09:42;30.90;32.50
19248;DHT22;9758;48.640;8.148;2023-06-26T15:12:09;30.80;32.20
19248;DHT22;9758;48.640;8.148;2023-06-26T15:14:36;30.80;32.20
19248;DHT22;9758;48.640;8.148;2023-06-26T15:17:03;30.60;32.20
19248;DHT22;9758;48.640;8.148;2023-06-26T15:19:29;30.60;32.00
19248;DHT22;9758;48.640;8.148;2023-06-26T15:21:58;30.60;32.30
19248;DHT22;9758;48.640;8.148;2023-06-26T15:24:24;30.60;32.40
19248;DHT22;9758;48.640;8.148;2023-06-26T15:26:51;30.70;32.30
19248;DHT22;9758;48.640;8.148;2023-06-26T15:29:18;30.90;32.20
19248;DHT22;9758;48.640;8.148;2023-06-26T15:31:44;31.00;32.10
19248;DHT22;9758;48.640;8.148;2023-06-26T15:34:11;31.20;31.90
19248;DHT22;9758;48.640;8.148;2023-06-26T15:36:38;31.30;30.80
19248;DHT22;9758;48.640;8.148;2023-06-26T15:39:06;31.30;30.60
19248;DHT22;9758;48.640;8.148;2023-06-26T15:41:33;31.20;30.80
19248;DHT22;9758;48.640;8.148;2023-06-26T15:44:02;31.30;31.70
19248;DHT22;9758;48.640;8.148;2023-06-26T15:46:29;31.40;31.10
19248;DHT22;9758;48.640;8.148;2023-06-26T15:48:55;31.60;30.90
19248;DHT22;9758;48.640;8.148;2023-06-26T15:51:22;31.70;30.00
19248;DHT22;9758;48.640;8.148;2023-06-26T15:53:49;31.60;30.10
19248;DHT22;9758;48.640;8.148;2023-06-26T15:56:17;31.50;30.30
19248;DHT22;9758;48.640;8.148;2023-06-26T15:58:43;31.40;30.30
19248;DHT22;9758;48.640;8.148;2023-06-26T16:01:12;31.30;30.00
19248;DHT22;9758;48.640;8.148;2023-06-26T16:03:39;31.10;30.10
19248;DHT22;9758;48.640;8.148;2023-06-26T16:06:06;31.10;30.10
19248;DHT22;9758;48.640;8.148;2023-06-26T16:08:34;31.00;30.00
19248;DHT22;9758;48.640;8.148;2023-06-26T16:11:01;31.00;30.30
19248;DHT22;9758;48.640;8.148;2023-06-26T16:13:29;31.10;30.40
19248;DHT22;9758;48.640;8.148;2023-06-26T16:15:56;31.30;30.50
19248;DHT22;9758;48.640;8.148;2023-06-26T16:18:23;31.60;30.40
19248;DHT22;9758;48.640;8.148;2023-06-26T16:20:49;32.00;30.30
19248;DHT22;9758;48.640;8.148;2023-06-26T16:23:17;32.30;30.00
19248;DHT22;9758;48.640;8.148;2023-06-26T16:25:44;32.40;29.90
19248;DHT22;9758;48.640;8.148;2023-06-26T16:28:12;32.50;28.80
19248;DHT22;9758;48.640;8.148;2023-06-26T16:30:40;32.50;29.70
19248;DHT22;9758;48.640;8.148;2023-06-26T16:33:07;32.70;29.50
19248;DHT22;9758;48.640;8.148;2023-06-26T16:35:33;33.10;29.80
19248;DHT22;9758;48.640;8.148;2023-06-26T16:38:00;33.50;29.90
19248;DHT22;9758;48.640;8.148;2023-06-26T16:40:27;34.00;28.60
19248;DHT22;9758;48.640;8.148;2023-06-26T16:42:55;34.20;28.60
19248;DHT22;9758;48.640;8.148;2023-06-26T16:45:21;34.20;29.00
19248;DHT22;9758;48.640;8.148;2023-06-26T16:47:49;34.30;28.70
19248;DHT22;9758;48.640;8.148;2023-06-26T16:50:16;34.30;28.60
19248;DHT22;9758;48.640;8.148;2023-06-26T16:52:43;34.20;28.30
19248;DHT22;9758;48.640;8.148;2023-06-26T16:55:10;33.90;27.90
19248;DHT22;9758;48.640;8.148;2023-06-26T16:57:37;33.60;28.50
19248;DHT22;9758;48.640;8.148;2023-06-26T17:00:05;33.30;28.60
19248;DHT22;9758;48.640;8.148;2023-06-26T17:02:32;33.10;28.80
19248;DHT22;9758;48.640;8.148;2023-06-26T17:05:01;33.10;29.00
19248;DHT22;9758;48.640;8.148;2023-06-26T17:07:27;33.40;29.40
19248;DHT22;9758;48.640;8.148;2023-06-26T17:09:55;33.90;28.40
19248;DHT22;9758;48.640;8.148;2023-06-26T17:12:22;34.30;28.70
19248;DHT22;9758;48.640;8.148;2023-06-26T17:14:51;34.70;28.80
19248;DHT22;9758;48.640;8.148;2023-06-26T17:17:18;35.20;28.60
19248;DHT22;9758;48.640;8.148;2023-06-26T17:19:46;35.50;28.20
19248;DHT22;9758;48.640;8.148;2023-06-26T17:22:14;35.70;27.60